createdAt,value
2019-01-08T00:01:49.609Z,18.37
2019-01-08T00:04:20.379Z,18.42
2019-01-08T00:06:50.976Z,19.95
2019-01-08T00:09:21.481Z,19.63
2019-01-08T00:11:52.124Z,18.43
2019-01-08T00:14:23.177Z,18.67
2019-01-08T00:16:53.621Z,21.20
2019-01-08T00:19:24.103Z,19.43
2019-01-08T00:21:54.560Z,18.47
2019-01-08T00:24:25.023Z,19.90
2019-01-08T00:26:55.582Z,17.85
2019-01-08T00:29:26.373Z,18.53
2019-01-08T00:31:56.828Z,18.98
2019-01-08T00:34:27.245Z,18.57
2019-01-08T00:36:57.962Z,19.70
2019-01-08T00:39:28.493Z,19.40
2019-01-08T00:41:59.266Z,17.57
2019-01-08T00:44:29.744Z,18.67
2019-01-08T00:47:00.244Z,17.07
2019-01-08T00:49:30.708Z,14.78
2019-01-08T00:52:01.161Z,15.38
2019-01-08T00:54:32.142Z,15.90
2019-01-08T00:57:02.828Z,14.45
2019-01-08T00:59:33.261Z,13.48
2019-01-08T01:02:03.718Z,13.83
2019-01-08T01:04:34.165Z,14.37
2019-01-08T01:07:04.786Z,14.23
2019-01-08T01:09:35.285Z,14.90
2019-01-08T01:12:05.766Z,14.03
2019-01-08T01:14:36.208Z,14.78
2019-01-08T01:17:06.991Z,13.48
2019-01-08T01:19:37.479Z,15.05
2019-01-08T01:22:07.963Z,15.35
2019-01-08T01:24:38.542Z,15.37
2019-01-08T01:27:08.992Z,16.20
2019-01-08T01:29:39.642Z,16.10
2019-01-08T01:32:10.124Z,16.20
2019-01-08T01:34:40.573Z,16.43
2019-01-08T01:37:11.064Z,17.23
2019-01-08T01:39:41.561Z,15.40
2019-01-08T01:42:12.016Z,16.85
2019-01-08T01:44:42.736Z,16.77
2019-01-08T01:47:13.173Z,17.80
2019-01-08T01:49:43.906Z,16.73
2019-01-08T01:52:14.437Z,18.90
2019-01-08T01:54:45.208Z,18.70
2019-01-08T01:57:16.176Z,18.00
2019-01-08T01:59:46.649Z,19.20
2019-01-08T02:02:17.169Z,18.65
2019-01-08T02:04:49.078Z,19.23
2019-01-08T02:07:19.548Z,18.05
2019-01-08T02:09:50.180Z,18.32
2019-01-08T02:12:20.673Z,23.47
2019-01-08T02:14:51.133Z,19.40
2019-01-08T02:17:21.662Z,22.00
2019-01-08T02:19:52.300Z,22.37
2019-01-08T02:22:22.774Z,22.03
2019-01-08T02:24:53.254Z,20.07
2019-01-08T02:27:23.700Z,21.42
2019-01-08T02:29:54.252Z,21.17
2019-01-08T02:32:25.016Z,19.17
2019-01-08T02:34:55.493Z,21.25
2019-01-08T02:37:25.954Z,20.35
2019-01-08T02:39:56.719Z,20.93
2019-01-08T02:42:27.171Z,21.47
2019-01-08T02:44:57.665Z,22.20
2019-01-08T02:47:28.518Z,20.07
2019-01-08T02:49:59.040Z,19.83
2019-01-08T02:52:29.819Z,21.30
2019-01-08T02:55:00.260Z,18.97
2019-01-08T02:57:30.898Z,19.93
2019-01-08T03:00:01.578Z,20.07
2019-01-08T03:02:32.300Z,19.90
2019-01-08T03:05:02.752Z,19.43
2019-01-08T03:07:33.259Z,17.87
2019-01-08T03:10:03.768Z,19.20
2019-01-08T03:12:34.272Z,19.70
2019-01-08T03:15:04.873Z,19.40
2019-01-08T03:17:36.393Z,19.75
2019-01-08T03:20:07.130Z,20.60
2019-01-08T03:22:37.593Z,20.70
2019-01-08T03:25:08.120Z,19.48
2019-01-08T03:27:38.703Z,19.48
2019-01-08T03:30:09.168Z,19.57
2019-01-08T03:32:39.635Z,20.73
2019-01-08T03:35:10.136Z,20.20
2019-01-08T03:37:40.652Z,19.63
2019-01-08T03:40:11.115Z,20.72
2019-01-08T03:42:41.589Z,20.40
2019-01-08T03:45:12.021Z,19.50
2019-01-08T03:47:55.116Z,22.03
2019-01-08T03:50:25.568Z,22.47
2019-01-08T03:52:56.142Z,21.27
2019-01-08T03:55:26.627Z,21.70
2019-01-08T03:57:57.081Z,21.43
2019-01-08T04:00:27.582Z,22.22
2019-01-08T04:02:58.033Z,21.17
2019-01-08T04:05:28.541Z,20.25
2019-01-08T04:07:59.257Z,21.10
2019-01-08T04:10:30.256Z,22.10
2019-01-08T04:13:00.722Z,21.77
2019-01-08T04:15:31.338Z,23.85
2019-01-08T04:18:01.868Z,22.30
2019-01-08T04:20:32.336Z,23.77
2019-01-08T04:23:02.822Z,24.33
2019-01-08T04:25:34.272Z,23.43
2019-01-08T04:28:04.757Z,22.22
2019-01-08T04:30:35.593Z,24.60
2019-01-08T04:33:06.105Z,23.20
2019-01-08T04:35:36.594Z,23.02
2019-01-08T04:38:07.052Z,22.77
2019-01-08T04:40:37.800Z,23.38
2019-01-08T04:43:09.457Z,23.60
2019-01-08T04:45:39.886Z,20.88
2019-01-08T04:48:10.630Z,22.10
2019-01-08T04:50:41.102Z,24.23
2019-01-08T04:53:11.561Z,22.55
2019-01-08T04:55:42.161Z,22.25
2019-01-08T04:58:12.940Z,25.13
2019-01-08T05:00:43.480Z,23.35
2019-01-08T05:03:13.966Z,25.20
2019-01-08T05:05:44.417Z,21.87
2019-01-08T05:08:15.183Z,20.70
2019-01-08T05:10:45.800Z,21.48
2019-01-08T05:13:16.356Z,22.60
2019-01-08T05:15:46.790Z,22.30
2019-01-08T05:18:17.600Z,21.95
2019-01-08T05:20:48.085Z,20.48
2019-01-08T05:23:18.597Z,22.35
2019-01-08T05:25:49.037Z,20.87
2019-01-08T05:28:19.794Z,20.20
2019-01-08T05:30:50.576Z,19.77
2019-01-08T05:33:21.042Z,18.70
2019-01-08T05:35:51.526Z,17.83
2019-01-08T05:38:21.965Z,18.63
2019-01-08T05:40:52.694Z,19.27
2019-01-08T05:43:23.290Z,19.63
2019-01-08T05:46:18.477Z,20.00
2019-01-08T05:48:49.407Z,19.87
2019-01-08T05:51:19.845Z,19.77
2019-01-08T05:53:50.645Z,19.97
2019-01-08T05:56:21.108Z,22.57
2019-01-08T05:58:51.901Z,21.50
2019-01-08T06:01:22.718Z,23.50
2019-01-08T06:03:53.292Z,21.07
2019-01-08T06:06:23.752Z,22.90
2019-01-08T06:08:56.949Z,21.80
2019-01-08T06:11:27.428Z,22.53
2019-01-08T06:13:58.259Z,23.67
2019-01-08T06:16:33.077Z,24.13
2019-01-08T06:19:03.939Z,25.60
2019-01-08T06:21:35.150Z,23.30
2019-01-08T06:24:05.778Z,25.03
2019-01-08T06:26:36.937Z,28.07
2019-01-08T06:29:07.421Z,23.63
2019-01-08T06:31:39.761Z,24.77
2019-01-08T06:34:10.488Z,27.13
2019-01-08T06:36:41.470Z,24.30
2019-01-08T06:39:12.491Z,23.60
2019-01-08T06:41:44.275Z,23.70
2019-01-08T06:44:15.061Z,28.30
2019-01-08T06:46:45.797Z,24.07
2019-01-08T06:51:46.117Z,29.43
2019-01-08T06:54:16.641Z,24.03
2019-01-08T06:56:47.200Z,23.67
2019-01-08T06:59:18.004Z,24.97
2019-01-08T07:01:49.081Z,23.60
2019-01-08T07:04:19.998Z,22.40
2019-01-08T07:06:50.697Z,20.07
2019-01-08T07:09:21.273Z,21.67
2019-01-08T07:11:52.002Z,23.57
2019-01-08T07:14:22.462Z,20.00
2019-01-08T07:16:53.465Z,22.57
2019-01-08T07:19:23.965Z,23.23
2019-01-08T07:21:54.496Z,21.43
2019-01-08T07:24:25.537Z,23.37
2019-01-08T07:26:56.658Z,20.63
2019-01-08T07:29:27.799Z,21.77
2019-01-08T07:31:58.421Z,19.30
2019-01-08T07:34:28.893Z,21.40
2019-01-08T07:36:59.363Z,21.60
2019-01-08T07:39:30.153Z,19.23
2019-01-08T07:42:00.647Z,20.60
2019-01-08T07:44:31.107Z,18.63
2019-01-08T07:47:01.558Z,21.50
2019-01-08T07:49:33.166Z,20.07
2019-01-08T07:52:03.646Z,16.60
2019-01-08T07:54:36.097Z,25.10
2019-01-08T07:57:07.432Z,21.30
2019-01-08T07:59:38.001Z,19.93
2019-01-08T08:02:08.535Z,20.70
2019-01-08T08:04:47.305Z,18.57
2019-01-08T08:07:12.144Z,17.90
2019-01-08T08:09:43.277Z,17.43
2019-01-08T08:12:13.736Z,18.73
2019-01-08T08:14:44.197Z,17.57
2019-01-08T08:17:14.950Z,15.70
2019-01-08T08:19:47.015Z,15.63
2019-01-08T08:22:17.489Z,17.20
2019-01-08T08:24:48.209Z,17.00
2019-01-08T08:27:19.272Z,15.17
2019-01-08T08:29:49.989Z,16.30
2019-01-08T08:32:20.440Z,15.53
2019-01-08T08:34:52.438Z,15.40
2019-01-08T08:37:22.857Z,13.33
2019-01-08T08:39:53.839Z,14.33
2019-01-08T08:42:24.353Z,13.23
2019-01-08T08:44:54.804Z,13.70
2019-01-08T08:47:25.783Z,17.07
2019-01-08T08:49:56.229Z,14.80
2019-01-08T08:52:26.701Z,16.17
2019-01-08T08:54:57.485Z,17.33
2019-01-08T08:57:27.937Z,16.90
2019-01-08T08:59:58.413Z,16.10
2019-01-08T09:02:29.131Z,14.90
2019-01-08T09:04:59.581Z,13.80
2019-01-08T09:07:30.109Z,15.47
2019-01-08T09:10:00.845Z,14.70
2019-01-08T09:12:31.304Z,15.87
2019-01-08T09:15:01.805Z,17.47
2019-01-08T09:17:32.237Z,14.97
2019-01-08T09:20:02.966Z,14.47
2019-01-08T09:22:33.409Z,15.37
2019-01-08T09:25:03.973Z,14.23
2019-01-08T09:27:35.486Z,12.23
2019-01-08T09:30:07.251Z,16.37
2019-01-08T09:32:38.073Z,13.97
2019-01-08T09:35:08.524Z,16.23
2019-01-08T09:37:38.955Z,14.37
2019-01-08T09:40:09.437Z,13.97
2019-01-08T09:42:39.933Z,17.00
2019-01-08T09:45:10.534Z,19.00
2019-01-08T09:47:40.989Z,15.80
2019-01-08T09:50:11.804Z,16.17
2019-01-08T09:52:42.377Z,17.70
2019-01-08T09:55:13.773Z,16.33
2019-01-08T09:57:44.232Z,18.43
2019-01-08T10:00:14.676Z,17.43
2019-01-08T10:02:45.140Z,20.60
2019-01-08T10:05:16.249Z,17.80
2019-01-08T10:07:46.690Z,17.20
2019-01-08T10:10:17.408Z,17.20
2019-01-08T10:12:47.841Z,17.40
2019-01-08T10:15:18.297Z,17.33
2019-01-08T10:17:48.728Z,17.80
2019-01-08T10:20:19.317Z,18.37
2019-01-08T10:22:50.069Z,18.10
2019-01-08T10:25:21.508Z,17.60
2019-01-08T10:27:52.251Z,17.47
2019-01-08T10:30:22.701Z,20.60
2019-01-08T10:32:53.176Z,19.37
2019-01-08T10:35:24.012Z,18.40
2019-01-08T10:37:54.549Z,18.90
2019-01-08T10:40:24.993Z,18.47
2019-01-08T10:42:55.477Z,21.50
2019-01-08T10:45:25.953Z,17.83
2019-01-08T10:47:56.469Z,18.43
2019-01-08T10:50:26.929Z,20.83
2019-01-08T10:52:57.394Z,21.73
2019-01-08T10:55:27.911Z,19.90
2019-01-08T10:57:58.768Z,19.50
2019-01-08T11:00:29.227Z,15.47
2019-01-08T11:02:59.666Z,16.27
2019-01-08T11:05:30.142Z,16.50
2019-01-08T11:08:01.550Z,17.47
2019-01-08T11:10:32.060Z,15.50
2019-01-08T11:13:02.496Z,18.40
2019-01-08T11:15:32.991Z,16.13
2019-01-08T11:18:06.173Z,15.60
2019-01-08T11:20:36.636Z,17.83
2019-01-08T11:23:07.437Z,17.93
2019-01-08T11:25:38.125Z,15.57
2019-01-08T11:28:08.577Z,13.33
2019-01-08T11:30:39.332Z,14.73
2019-01-08T11:33:09.785Z,15.20
2019-01-08T11:35:42.333Z,13.80
2019-01-08T11:38:12.759Z,15.60
2019-01-08T11:40:44.318Z,13.47
2019-01-08T11:43:14.757Z,18.53
2019-01-08T11:45:45.204Z,15.47
2019-01-08T11:48:15.922Z,16.17
2019-01-08T11:50:46.457Z,18.23
2019-01-08T11:53:16.896Z,14.90
2019-01-08T11:55:47.338Z,15.30
2019-01-08T11:58:17.776Z,15.97
2019-01-08T12:00:48.434Z,12.80
2019-01-08T12:03:18.885Z,18.30
2019-01-08T12:05:49.376Z,14.13
2019-01-08T12:08:20.922Z,14.13
2019-01-08T12:10:51.719Z,15.10
2019-01-08T12:13:22.156Z,13.43
2019-01-08T12:15:53.006Z,13.87
2019-01-08T12:18:23.458Z,14.60
2019-01-08T12:20:53.961Z,15.40
2019-01-08T12:23:24.388Z,14.17
2019-01-08T12:25:54.893Z,14.50
2019-01-08T12:28:25.354Z,15.23
2019-01-08T12:30:55.948Z,15.20
2019-01-08T12:33:27.858Z,16.33
2019-01-08T12:35:58.664Z,15.73
2019-01-08T12:38:29.176Z,13.77
2019-01-08T12:40:59.628Z,12.53
2019-01-08T12:43:30.641Z,16.13
2019-01-08T12:46:01.116Z,15.57
2019-01-08T12:48:31.549Z,17.27
2019-01-08T12:51:02.387Z,13.97
2019-01-08T12:53:32.980Z,14.23
2019-01-08T12:56:03.414Z,20.37
2019-01-08T12:58:34.183Z,14.93
2019-01-08T13:01:05.613Z,13.33
2019-01-08T13:03:36.088Z,13.17
2019-01-08T13:06:06.842Z,11.40
2019-01-08T13:08:37.278Z,12.93
2019-01-08T13:11:08.424Z,11.37
2019-01-08T13:13:39.547Z,11.83
2019-01-08T13:16:10.118Z,11.00
2019-01-08T13:18:40.940Z,11.47
2019-01-08T13:21:11.724Z,11.30
2019-01-08T13:23:42.530Z,12.93
2019-01-08T13:26:13.004Z,9.97
2019-01-08T13:28:44.293Z,10.70
2019-01-08T13:31:15.720Z,12.53
2019-01-08T13:33:46.169Z,11.20
2019-01-08T13:36:16.940Z,11.07
2019-01-08T13:38:47.390Z,11.53
2019-01-08T13:41:17.826Z,13.77
2019-01-08T13:43:48.265Z,12.80
2019-01-08T13:46:18.733Z,13.67
2019-01-08T13:48:49.184Z,12.43
2019-01-08T13:51:19.626Z,13.83
2019-01-08T13:53:50.061Z,14.67
2019-01-08T13:56:20.547Z,11.30
2019-01-08T13:58:50.996Z,11.50
2019-01-08T14:01:21.617Z,15.20
2019-01-08T14:03:52.145Z,11.87
2019-01-08T14:06:24.045Z,12.90
2019-01-08T14:08:54.499Z,11.63
2019-01-08T14:11:25.102Z,10.73
2019-01-08T14:13:55.869Z,13.73
2019-01-08T14:16:26.321Z,13.67
2019-01-08T14:18:56.862Z,10.27
2019-01-08T14:21:27.453Z,9.30
2019-01-08T14:23:57.948Z,8.80
2019-01-08T14:26:28.949Z,11.43
2019-01-08T14:28:59.457Z,11.87
2019-01-08T14:31:29.900Z,9.93
2019-01-08T14:34:01.298Z,9.50
2019-01-08T14:36:31.984Z,10.33
2019-01-08T14:39:03.484Z,9.00
2019-01-08T14:41:35.226Z,9.67
2019-01-08T14:44:05.697Z,11.13
2019-01-08T14:46:36.162Z,7.00
2019-01-08T14:49:06.684Z,10.40
2019-01-08T14:51:37.193Z,8.97
2019-01-08T14:54:07.633Z,10.50
2019-01-08T14:56:38.097Z,9.70
2019-01-08T14:59:08.575Z,12.13
2019-01-08T15:01:39.202Z,10.10
2019-01-08T15:04:09.768Z,8.57
2019-01-08T15:06:40.644Z,9.07
2019-01-08T15:09:11.105Z,7.37
2019-01-08T15:11:41.632Z,7.33
2019-01-08T15:14:14.352Z,8.73
2019-01-08T15:16:44.789Z,7.37
2019-01-08T15:19:15.225Z,9.60
2019-01-08T15:21:46.766Z,8.30
2019-01-08T15:24:17.258Z,9.90
2019-01-08T15:26:48.189Z,7.73
2019-01-08T15:29:19.500Z,9.87
2019-01-08T15:31:49.942Z,11.73
2019-01-08T15:34:20.397Z,9.50
2019-01-08T15:36:50.850Z,6.90
2019-01-08T15:39:21.770Z,7.03
2019-01-08T15:41:52.684Z,11.00
2019-01-08T15:44:23.200Z,7.17
2019-01-08T15:46:54.006Z,8.77
2019-01-08T15:49:24.552Z,11.40
2019-01-08T15:51:55.356Z,10.37
2019-01-08T15:54:25.821Z,9.17
2019-01-08T15:56:56.588Z,9.43
2019-01-08T15:59:27.065Z,9.43
2019-01-08T16:01:57.560Z,9.60
2019-01-08T16:04:27.996Z,11.83
2019-01-08T16:06:58.962Z,8.60
2019-01-08T16:09:29.405Z,6.87
2019-01-08T16:11:59.885Z,6.37
2019-01-08T16:14:31.460Z,8.03
2019-01-08T16:17:02.217Z,7.50
2019-01-08T16:19:32.665Z,7.75
2019-01-08T16:22:03.116Z,11.43
2019-01-08T16:24:33.878Z,7.93
2019-01-08T16:27:04.301Z,9.37
2019-01-08T16:29:34.716Z,8.17
2019-01-08T16:32:05.156Z,7.67
2019-01-08T16:34:35.594Z,6.70
2019-01-08T16:37:06.136Z,8.47
2019-01-08T16:39:36.580Z,7.08
2019-01-08T16:42:07.004Z,9.33
2019-01-08T16:44:37.594Z,7.57
2019-01-08T16:47:08.144Z,7.23
2019-01-08T16:49:38.745Z,6.47
2019-01-08T16:52:10.193Z,6.97
2019-01-08T16:54:40.809Z,8.63
2019-01-08T16:57:11.232Z,5.93
2019-01-08T16:59:43.093Z,6.27
2019-01-08T17:02:13.585Z,7.20
2019-01-08T17:04:44.059Z,7.60
2019-01-08T17:07:15.141Z,7.97
2019-01-08T17:09:45.566Z,5.27
2019-01-08T17:12:17.523Z,6.80
2019-01-08T17:14:47.989Z,7.17
2019-01-08T17:17:18.425Z,6.27
2019-01-08T17:19:55.700Z,5.53
2019-01-08T17:22:26.126Z,6.90
2019-01-08T17:24:56.536Z,6.03
2019-01-08T17:27:27.348Z,5.57
2019-01-08T17:29:57.939Z,5.30
2019-01-08T17:32:28.451Z,4.50
2019-01-08T17:34:59.192Z,5.73
2019-01-08T17:37:29.684Z,7.13
2019-01-08T17:40:24.274Z,6.20
2019-01-08T17:43:33.648Z,5.93
2019-01-08T17:46:06.541Z,5.17
2019-01-08T17:48:37.343Z,5.70
2019-01-08T17:51:07.840Z,3.87
2019-01-08T17:53:38.296Z,5.17
2019-01-08T17:56:08.757Z,6.07
2019-01-08T17:58:42.138Z,6.53
2019-01-08T18:01:21.862Z,3.27
2019-01-08T18:03:52.410Z,5.70
2019-01-08T18:06:22.875Z,6.07
2019-01-08T18:08:53.336Z,7.93
2019-01-08T18:11:24.169Z,9.00
2019-01-08T18:13:54.668Z,5.67
2019-01-08T18:16:56.283Z,7.40
2019-01-08T18:19:26.733Z,5.33
2019-01-08T18:21:57.221Z,7.30
2019-01-08T18:24:27.732Z,4.70
2019-01-08T18:26:58.249Z,8.10
2019-01-08T18:29:29.203Z,7.07
2019-01-08T18:31:59.718Z,5.20
2019-01-08T18:34:30.174Z,6.53
2019-01-08T18:37:00.616Z,10.07
2019-01-08T18:39:31.396Z,6.57
2019-01-08T18:42:01.851Z,6.53
2019-01-08T18:44:32.336Z,9.10
2019-01-08T18:47:02.924Z,6.90
2019-01-08T18:49:33.645Z,7.37
2019-01-08T18:52:04.298Z,6.60
2019-01-08T18:54:34.746Z,7.27
2019-01-08T18:57:05.216Z,8.57
2019-01-08T18:59:35.690Z,3.50
2019-01-08T19:02:06.477Z,5.87
2019-01-08T19:04:44.912Z,5.10
2019-01-08T19:07:21.346Z,8.73
2019-01-08T19:10:01.205Z,5.30
2019-01-08T19:12:32.018Z,7.57
2019-01-08T19:15:02.577Z,6.57
2019-01-08T19:17:33.317Z,6.20
2019-01-08T19:22:42.748Z,6.13
2019-01-08T19:25:13.533Z,6.27
2019-01-08T19:27:44.102Z,6.40
2019-01-08T19:30:14.562Z,12.57
2019-01-08T19:32:45.019Z,11.03
2019-01-08T19:35:15.597Z,10.10
2019-01-08T19:37:46.157Z,4.97
2019-01-08T19:40:16.916Z,7.37
2019-01-08T19:42:48.390Z,5.37
2019-01-08T19:49:15.633Z,3.80
2019-01-08T19:55:19.973Z,7.60
2019-01-08T19:57:50.595Z,4.87
2019-01-08T20:00:21.731Z,5.80
2019-01-08T20:02:52.530Z,6.67
2019-01-08T20:05:23.580Z,3.03
2019-01-08T20:07:54.524Z,5.50
2019-01-08T20:10:24.960Z,7.67
2019-01-08T20:12:55.564Z,4.77
2019-01-08T20:15:26.360Z,5.07
2019-01-08T20:17:56.882Z,7.17
2019-01-08T20:20:27.453Z,5.43
2019-01-08T20:22:58.356Z,7.10
2019-01-08T20:25:28.985Z,4.40
2019-01-08T20:27:59.576Z,6.47
2019-01-08T20:30:30.089Z,4.27
2019-01-08T20:33:00.550Z,5.50
2019-01-08T20:35:31.001Z,4.30
2019-01-08T20:38:01.553Z,4.37
2019-01-08T20:40:32.304Z,4.80
2019-01-08T20:43:02.757Z,4.00
2019-01-08T20:45:33.221Z,4.53
2019-01-08T20:48:03.673Z,5.13
2019-01-08T20:50:34.160Z,5.53
2019-01-08T20:53:10.460Z,3.90
2019-01-08T20:55:41.032Z,4.77
2019-01-08T20:58:11.473Z,5.37
2019-01-08T21:00:42.694Z,6.27
2019-01-08T21:03:13.661Z,5.83
2019-01-08T21:06:18.020Z,4.23
2019-01-08T21:09:23.030Z,4.47
2019-01-08T21:16:02.252Z,5.67
2019-01-08T21:18:33.142Z,6.23
2019-01-08T21:21:04.107Z,6.60
2019-01-08T21:23:38.965Z,4.30
2019-01-08T21:26:09.400Z,5.43
2019-01-08T21:28:40.187Z,6.20
2019-01-08T21:31:12.138Z,4.60
2019-01-08T21:33:43.363Z,5.53
2019-01-08T21:36:14.020Z,4.13
2019-01-08T21:38:44.578Z,4.43
2019-01-08T21:41:15.309Z,7.47
2019-01-08T21:43:46.708Z,6.87
2019-01-08T21:46:17.345Z,7.13
2019-01-08T21:48:47.858Z,6.80
2019-01-08T21:51:18.298Z,7.27
2019-01-08T21:53:49.101Z,4.47
2019-01-08T21:56:19.609Z,4.80
2019-01-08T21:59:03.377Z,3.50
2019-01-08T22:01:34.102Z,6.47
2019-01-08T22:04:04.684Z,3.67
2019-01-08T22:06:35.224Z,7.40
2019-01-08T22:09:06.832Z,4.93
2019-01-08T22:11:37.565Z,4.60
2019-01-08T22:14:08.117Z,4.70
2019-01-08T22:16:38.577Z,6.10
2019-01-08T22:19:09.012Z,5.03
2019-01-08T22:21:40.057Z,4.73
2019-01-08T22:24:10.497Z,5.43
2019-01-08T22:26:40.949Z,7.03
2019-01-08T22:29:11.372Z,2.90
2019-01-08T22:31:41.920Z,4.17
2019-01-08T22:34:12.423Z,8.10
2019-01-08T22:36:52.929Z,7.03
2019-01-08T22:39:24.822Z,4.67
2019-01-08T22:41:56.520Z,5.00
2019-01-08T22:44:27.423Z,4.93
2019-01-08T22:46:57.867Z,3.77
2019-01-08T22:49:28.301Z,4.87
2019-01-08T22:51:58.777Z,5.50
2019-01-08T22:54:29.305Z,6.57
2019-01-08T22:56:59.732Z,5.43
2019-01-08T22:59:31.665Z,6.07
2019-01-08T23:02:02.144Z,6.67
2019-01-08T23:04:32.656Z,3.70
2019-01-08T23:07:09.006Z,4.97
2019-01-08T23:09:45.565Z,7.30
2019-01-08T23:12:17.715Z,5.97
2019-01-08T23:14:48.746Z,5.13
2019-01-08T23:17:19.338Z,4.80
2019-01-08T23:19:55.861Z,5.23
2019-01-08T23:22:28.341Z,5.03
2019-01-08T23:24:59.273Z,4.07
2019-01-08T23:27:29.721Z,3.87
2019-01-08T23:30:00.976Z,4.40
2019-01-08T23:32:31.638Z,5.33
2019-01-08T23:35:08.358Z,6.03
2019-01-08T23:37:38.857Z,5.17
2019-01-08T23:40:09.731Z,6.97
2019-01-08T23:42:40.843Z,4.93
2019-01-08T23:45:11.329Z,7.57
2019-01-08T23:47:42.054Z,5.80
2019-01-08T23:50:12.485Z,5.93
2019-01-08T23:53:05.877Z,5.97
2019-01-08T23:55:50.898Z,5.87
2019-01-08T23:58:21.839Z,7.53
